PWSweather.com
Personal Weather Stations
Station Observations
BREAKEY01
Lévis, Breakeyville, QC G0S 1E1

LévisBreakeyville, QC G0S 1E1

Lat: 46.681, Lon: -71.224

Elevation: 328

Station Type: Davis Vantage Pro2

http://www.meteobreakey.webou.net/topic/index.php

Latest ConditionsUpdated 7:37:05 PM EST Wednesday, Dec 17, 2014
Currently Today's Max Today's Min Today's Average
Temperature 29.7°F-1.3°C 29.8°F-1.2°C 27.9°F-2.3°C 29.2°F-1.6°C
Dew Point 28.9°F-1.7°C 29.1°F-1.6°C 26.6°F-3.0°C 28.1°F-2.2°C
Winds 10.1 mph ENE16.3 kmh ENE 13.0 mph E20.9 kmh E - 9.4 mph 15.1 kmh
Wind Gusts 8.9 mph14.3 kmh 19.9 mph32.0 kmh - -
Humidity 97% 97% 95% 96%
Pressure 29.81 in1009.5 mb 29.99 in1015.6 mb 29.80 in1009.1 mb -
Precipitation - 0.17 in4.3 mm - -
Hour Temp Dew Point Humidity Winds Wind Gusts Pressure Precip Precip Rate Daily Precip Total
07:37 PM 29.7°F-1.3°C 28.9°F-1.7°C 97% 10.1 mph ENE16.3 kmh ENE 8.9 mph14.3 kmh 29.81 in1009.5 mb 0.00 in0.0 mm 0.00 in/hr0.0 mm/hr 0.17 in4.3 mm
07:32 PM 29.7°F-1.3°C 28.9°F-1.7°C 97% 11.0 mph E17.7 kmh E 11.0 mph17.7 kmh 29.80 in1009.1 mb 0.00 in0.0 mm 0.00 in/hr0.0 mm/hr 0.17 in4.3 mm
07:27 PM 29.7°F-1.3°C 28.9°F-1.7°C 97% 12.1 mph E19.5 kmh E 17.9 mph28.8 kmh 29.80 in1009.1 mb 0.00 in0.0 mm 0.00 in/hr0.0 mm/hr 0.17 in4.3 mm
07:22 PM 29.7°F-1.3°C 28.9°F-1.7°C 97% 11.0 mph E17.7 kmh E 14.1 mph22.7 kmh 29.81 in1009.5 mb 0.00 in0.0 mm 0.00 in/hr0.0 mm/hr 0.17 in4.3 mm
07:17 PM 29.7°F-1.3°C 28.9°F-1.7°C 97% 10.1 mph NE16.3 kmh NE 10.1 mph16.3 kmh 29.81 in1009.5 mb 0.00 in0.0 mm 0.00 in/hr0.0 mm/hr 0.17 in4.3 mm
07:12 PM 29.7°F-1.3°C 28.9°F-1.7°C 97% 11.0 mph E17.7 kmh E 2.9 mph4.7 kmh 29.81 in1009.5 mb 0.00 in0.0 mm 0.00 in/hr0.0 mm/hr 0.17 in4.3 mm
07:07 PM 29.7°F-1.3°C 28.9°F-1.7°C 97% 11.0 mph E17.7 kmh E 8.9 mph14.3 kmh 29.81 in1009.5 mb 0.00 in0.0 mm 0.00 in/hr0.0 mm/hr 0.17 in4.3 mm
07:02 PM 29.7°F-1.3°C 28.9°F-1.7°C 97% 11.0 mph E17.7 kmh E 12.1 mph19.5 kmh 29.81 in1009.5 mb 0.00 in0.0 mm 0.00 in/hr0.0 mm/hr 0.17 in4.3 mm
06:57 PM 29.7°F-1.3°C 28.9°F-1.7°C 97% 12.1 mph ENE19.5 kmh ENE 16.1 mph25.9 kmh 29.81 in1009.5 mb 0.00 in0.0 mm 0.00 in/hr0.0 mm/hr 0.17 in4.3 mm
06:52 PM 29.8°F-1.2°C 29.1°F-1.6°C 97% 13.0 mph E20.9 kmh E 15.0 mph24.1 kmh 29.81 in1009.5 mb 0.00 in0.0 mm 0.00 in/hr0.0 mm/hr 0.17 in4.3 mm
06:47 PM 29.8°F-1.2°C 29.1°F-1.6°C 97% 12.1 mph E19.5 kmh E 12.1 mph19.5 kmh 29.81 in1009.5 mb 0.00 in0.0 mm 0.00 in/hr0.0 mm/hr 0.17 in4.3 mm
06:42 PM 29.8°F-1.2°C 29.1°F-1.6°C 97% 12.1 mph E19.5 kmh E 11.0 mph17.7 kmh 29.81 in1009.5 mb 0.00 in0.0 mm 0.00 in/hr0.0 mm/hr 0.17 in4.3 mm
06:37 PM 29.8°F-1.2°C 29.1°F-1.6°C 97% 12.1 mph ENE19.5 kmh ENE 11.0 mph17.7 kmh 29.81 in1009.5 mb 0.00 in0.0 mm 0.00 in/hr0.0 mm/hr 0.17 in4.3 mm
06:32 PM 29.8°F-1.2°C 29.1°F-1.6°C 97% 12.1 mph E19.5 kmh E 12.1 mph19.5 kmh 29.81 in1009.5 mb 0.00 in0.0 mm 0.00 in/hr0.0 mm/hr 0.17 in4.3 mm
06:27 PM 29.8°F-1.2°C 29.1°F-1.6°C 97% 12.1 mph E19.5 kmh E 12.1 mph19.5 kmh 29.81 in1009.5 mb 0.00 in0.0 mm 0.00 in/hr0.0 mm/hr 0.17 in4.3 mm
06:22 PM 29.8°F-1.2°C 29.1°F-1.6°C 97% 12.1 mph ENE19.5 kmh ENE 11.0 mph17.7 kmh 29.81 in1009.5 mb 0.00 in0.0 mm 0.00 in/hr0.0 mm/hr 0.17 in4.3 mm
06:17 PM 29.8°F-1.2°C 29.1°F-1.6°C 97% 11.0 mph ENE17.7 kmh ENE 8.9 mph14.3 kmh 29.81 in1009.5 mb 0.00 in0.0 mm 0.00 in/hr0.0 mm/hr 0.17 in4.3 mm
06:12 PM 29.8°F-1.2°C 29.1°F-1.6°C 97% 10.1 mph E16.3 kmh E 17.9 mph28.8 kmh 29.81 in1009.5 mb 0.00 in0.0 mm 0.00 in/hr0.0 mm/hr 0.16 in4.1 mm
06:07 PM 29.8°F-1.2°C 29.1°F-1.6°C 97% 11.0 mph ENE17.7 kmh ENE 8.9 mph14.3 kmh 29.81 in1009.5 mb 0.00 in0.0 mm 0.00 in/hr0.0 mm/hr 0.16 in4.1 mm
06:02 PM 29.8°F-1.2°C 29.1°F-1.6°C 97% 12.1 mph E19.5 kmh E 8.9 mph14.3 kmh 29.81 in1009.5 mb 0.00 in0.0 mm 0.00 in/hr0.0 mm/hr 0.16 in4.1 mm
05:57 PM 29.8°F-1.2°C 29.1°F-1.6°C 97% 12.1 mph ENE19.5 kmh ENE 11.0 mph17.7 kmh 29.81 in1009.5 mb 0.00 in0.0 mm 0.00 in/hr0.0 mm/hr 0.16 in4.1 mm
05:52 PM 29.8°F-1.2°C 29.1°F-1.6°C 97% 11.0 mph ENE17.7 kmh ENE 12.1 mph19.5 kmh 29.81 in1009.5 mb 0.00 in0.0 mm 0.00 in/hr0.0 mm/hr 0.16 in4.1 mm
05:47 PM 29.8°F-1.2°C 29.1°F-1.6°C 97% 11.0 mph ENE17.7 kmh ENE 13.0 mph20.9 kmh 29.81 in1009.5 mb 0.00 in0.0 mm 0.00 in/hr0.0 mm/hr 0.16 in4.1 mm
05:42 PM 29.8°F-1.2°C 29.1°F-1.6°C 97% 12.1 mph E19.5 kmh E 11.0 mph17.7 kmh 29.81 in1009.5 mb 0.00 in0.0 mm 0.00 in/hr0.0 mm/hr 0.16 in4.1 mm
05:37 PM 29.8°F-1.2°C 29.1°F-1.6°C 97% 13.0 mph ENE20.9 kmh ENE 8.1 mph13.0 kmh 29.81 in1009.5 mb 0.00 in0.0 mm 0.00 in/hr0.0 mm/hr 0.16 in4.1 mm
05:32 PM 29.8°F-1.2°C 29.1°F-1.6°C 97% 12.1 mph NE19.5 kmh NE 14.1 mph22.7 kmh 29.81 in1009.5 mb 0.00 in0.0 mm 0.00 in/hr0.0 mm/hr 0.15 in3.8 mm
05:27 PM 29.7°F-1.3°C 28.9°F-1.7°C 97% 12.1 mph ENE19.5 kmh ENE 11.0 mph17.7 kmh 29.81 in1009.5 mb 0.00 in0.0 mm 0.00 in/hr0.0 mm/hr 0.15 in3.8 mm
05:22 PM 29.7°F-1.3°C 28.9°F-1.7°C 97% 12.1 mph E19.5 kmh E 12.1 mph19.5 kmh 29.81 in1009.5 mb 0.00 in0.0 mm 0.00 in/hr0.0 mm/hr 0.15 in3.8 mm
05:17 PM 29.8°F-1.2°C 29.1°F-1.6°C 97% 11.0 mph E17.7 kmh E 10.1 mph16.3 kmh 29.81 in1009.5 mb 0.00 in0.0 mm 0.00 in/hr0.0 mm/hr 0.15 in3.8 mm
05:12 PM 29.7°F-1.3°C 28.9°F-1.7°C 97% 11.0 mph E17.7 kmh E 12.1 mph19.5 kmh 29.81 in1009.5 mb 0.00 in0.0 mm 0.00 in/hr0.0 mm/hr 0.15 in3.8 mm
05:07 PM 29.7°F-1.3°C 28.9°F-1.7°C 97% 11.0 mph ENE17.7 kmh ENE 13.0 mph20.9 kmh 29.81 in1009.5 mb 0.00 in0.0 mm 0.00 in/hr0.0 mm/hr 0.15 in3.8 mm
05:02 PM 29.7°F-1.3°C 28.9°F-1.7°C 97% 10.1 mph ENE16.3 kmh ENE 16.1 mph25.9 kmh 29.81 in1009.5 mb 0.00 in0.0 mm 0.00 in/hr0.0 mm/hr 0.15 in3.8 mm
04:57 PM 29.7°F-1.3°C 28.9°F-1.7°C 97% 10.1 mph E16.3 kmh E 10.1 mph16.3 kmh 29.81 in1009.5 mb 0.00 in0.0 mm 0.00 in/hr0.0 mm/hr 0.15 in3.8 mm
04:52 PM 29.7°F-1.3°C 28.9°F-1.7°C 97% 10.1 mph E16.3 kmh E 8.1 mph13.0 kmh 29.81 in1009.5 mb 0.00 in0.0 mm 0.00 in/hr0.0 mm/hr 0.15 in3.8 mm
04:47 PM 29.7°F-1.3°C 28.9°F-1.7°C 97% 11.0 mph E17.7 kmh E 8.1 mph13.0 kmh 29.81 in1009.5 mb 0.00 in0.0 mm 0.00 in/hr0.0 mm/hr 0.15 in3.8 mm
04:42 PM 29.7°F-1.3°C 28.9°F-1.7°C 97% 11.0 mph ENE17.7 kmh ENE 6.9 mph11.1 kmh 29.81 in1009.5 mb 0.00 in0.0 mm 0.00 in/hr0.0 mm/hr 0.15 in3.8 mm
04:37 PM 29.7°F-1.3°C 28.9°F-1.7°C 97% 11.0 mph NE17.7 kmh NE 14.1 mph22.7 kmh 29.81 in1009.5 mb 0.00 in0.0 mm 0.00 in/hr0.0 mm/hr 0.15 in3.8 mm
04:32 PM 29.7°F-1.3°C 28.9°F-1.7°C 97% 11.0 mph E17.7 kmh E 12.1 mph19.5 kmh 29.81 in1009.5 mb 0.00 in0.0 mm 0.00 in/hr0.0 mm/hr 0.15 in3.8 mm
04:27 PM 29.7°F-1.3°C 28.9°F-1.7°C 97% 10.1 mph ENE16.3 kmh ENE 10.1 mph16.3 kmh 29.81 in1009.5 mb 0.00 in0.0 mm 0.00 in/hr0.0 mm/hr 0.15 in3.8 mm
04:22 PM 29.7°F-1.3°C 28.9°F-1.7°C 97% 11.0 mph E17.7 kmh E 13.0 mph20.9 kmh 29.81 in1009.5 mb 0.00 in0.0 mm 0.00 in/hr0.0 mm/hr 0.14 in3.6 mm
04:17 PM 29.7°F-1.3°C 28.9°F-1.7°C 97% 12.1 mph E19.5 kmh E 10.1 mph16.3 kmh 29.81 in1009.5 mb 0.00 in0.0 mm 0.00 in/hr0.0 mm/hr 0.14 in3.6 mm
04:12 PM 29.7°F-1.3°C 28.9°F-1.7°C 97% 10.1 mph E16.3 kmh E 14.1 mph22.7 kmh 29.81 in1009.5 mb 0.00 in0.0 mm 0.00 in/hr0.0 mm/hr 0.14 in3.6 mm
04:07 PM 29.7°F-1.3°C 28.9°F-1.7°C 97% 10.1 mph NNE16.3 kmh NNE 13.0 mph20.9 kmh 29.81 in1009.5 mb 0.00 in0.0 mm 0.00 in/hr0.0 mm/hr 0.14 in3.6 mm
04:02 PM 29.7°F-1.3°C 28.6°F-1.9°C 96% 10.1 mph E16.3 kmh E 8.9 mph14.3 kmh 29.81 in1009.5 mb 0.00 in0.0 mm 0.00 in/hr0.0 mm/hr 0.14 in3.6 mm
03:57 PM 29.7°F-1.3°C 28.9°F-1.7°C 97% 12.1 mph E19.5 kmh E 12.1 mph19.5 kmh 29.81 in1009.5 mb 0.00 in0.0 mm 0.00 in/hr0.0 mm/hr 0.14 in3.6 mm
03:52 PM 29.7°F-1.3°C 28.9°F-1.7°C 97% 13.0 mph E20.9 kmh E 10.1 mph16.3 kmh 29.81 in1009.5 mb 0.00 in0.0 mm 0.00 in/hr0.0 mm/hr 0.14 in3.6 mm
03:47 PM 29.7°F-1.3°C 28.6°F-1.9°C 96% 12.1 mph NE19.5 kmh NE 12.1 mph19.5 kmh 29.81 in1009.5 mb 0.00 in0.0 mm 0.00 in/hr0.0 mm/hr 0.13 in3.3 mm
03:42 PM 29.7°F-1.3°C 28.6°F-1.9°C 96% 12.1 mph ENE19.5 kmh ENE 12.1 mph19.5 kmh 29.81 in1009.5 mb 0.00 in0.0 mm 0.00 in/hr0.0 mm/hr 0.13 in3.3 mm
03:37 PM 29.7°F-1.3°C 28.6°F-1.9°C 96% 12.1 mph E19.5 kmh E 8.1 mph13.0 kmh 29.81 in1009.5 mb 0.00 in0.0 mm 0.00 in/hr0.0 mm/hr 0.13 in3.3 mm
03:32 PM 29.7°F-1.3°C 28.6°F-1.9°C 96% 11.0 mph E17.7 kmh E 14.1 mph22.7 kmh 29.81 in1009.5 mb 0.00 in0.0 mm 0.00 in/hr0.0 mm/hr 0.13 in3.3 mm
03:27 PM 29.7°F-1.3°C 28.6°F-1.9°C 96% 11.0 mph E17.7 kmh E 19.0 mph30.6 kmh 29.81 in1009.5 mb 0.00 in0.0 mm 0.00 in/hr0.0 mm/hr 0.13 in3.3 mm
03:22 PM 29.7°F-1.3°C 28.9°F-1.7°C 97% 12.1 mph ENE19.5 kmh ENE 12.1 mph19.5 kmh 29.81 in1009.5 mb 0.00 in0.0 mm 0.00 in/hr0.0 mm/hr 0.13 in3.3 mm
03:17 PM 29.7°F-1.3°C 28.6°F-1.9°C 96% 12.1 mph E19.5 kmh E 10.1 mph16.3 kmh 29.81 in1009.5 mb 0.00 in0.0 mm 0.00 in/hr0.0 mm/hr 0.13 in3.3 mm
03:12 PM 29.7°F-1.3°C 28.6°F-1.9°C 96% 12.1 mph ENE19.5 kmh ENE 10.1 mph16.3 kmh 29.81 in1009.5 mb 0.00 in0.0 mm 0.00 in/hr0.0 mm/hr 0.13 in3.3 mm
03:07 PM 29.7°F-1.3°C 28.6°F-1.9°C 96% 11.0 mph E17.7 kmh E 8.9 mph14.3 kmh 29.81 in1009.5 mb 0.00 in0.0 mm 0.00 in/hr0.0 mm/hr 0.13 in3.3 mm
03:02 PM 29.7°F-1.3°C 28.6°F-1.9°C 96% 11.0 mph ENE17.7 kmh ENE 8.9 mph14.3 kmh 29.81 in1009.5 mb 0.00 in0.0 mm 0.00 in/hr0.0 mm/hr 0.13 in3.3 mm
02:57 PM 29.7°F-1.3°C 28.6°F-1.9°C 96% 10.1 mph NE16.3 kmh NE 10.1 mph16.3 kmh 29.82 in1009.8 mb 0.00 in0.0 mm 0.00 in/hr0.0 mm/hr 0.13 in3.3 mm
02:52 PM 29.7°F-1.3°C 28.9°F-1.7°C 97% 12.1 mph ENE19.5 kmh ENE 11.0 mph17.7 kmh 29.82 in1009.8 mb 0.00 in0.0 mm 0.00 in/hr0.0 mm/hr 0.13 in3.3 mm
02:47 PM 29.7°F-1.3°C 28.9°F-1.7°C 97% 11.0 mph ENE17.7 kmh ENE 8.9 mph14.3 kmh 29.82 in1009.8 mb 0.00 in0.0 mm 0.00 in/hr0.0 mm/hr 0.13 in3.3 mm
02:42 PM 29.7°F-1.3°C 28.9°F-1.7°C 97% 10.1 mph ENE16.3 kmh ENE 10.1 mph16.3 kmh 29.82 in1009.8 mb 0.00 in0.0 mm 0.00 in/hr0.0 mm/hr 0.12 in3.0 mm
02:37 PM 29.7°F-1.3°C 28.9°F-1.7°C 97% 11.0 mph ENE17.7 kmh ENE 8.9 mph14.3 kmh 29.82 in1009.8 mb 0.00 in0.0 mm 0.00 in/hr0.0 mm/hr 0.12 in3.0 mm
02:32 PM 29.7°F-1.3°C 28.9°F-1.7°C 97% 8.9 mph E14.3 kmh E 8.1 mph13.0 kmh 29.82 in1009.8 mb 0.00 in0.0 mm 0.00 in/hr0.0 mm/hr 0.12 in3.0 mm
02:27 PM 29.7°F-1.3°C 28.9°F-1.7°C 97% 8.1 mph E13.0 kmh E 6.9 mph11.1 kmh 29.82 in1009.8 mb 0.00 in0.0 mm 0.00 in/hr0.0 mm/hr 0.12 in3.0 mm
02:22 PM 29.7°F-1.3°C 28.9°F-1.7°C 97% 8.9 mph NE14.3 kmh NE 6.0 mph9.7 kmh 29.82 in1009.8 mb 0.00 in0.0 mm 0.00 in/hr0.0 mm/hr 0.12 in3.0 mm
02:17 PM 29.7°F-1.3°C 28.6°F-1.9°C 96% 11.0 mph E17.7 kmh E 8.9 mph14.3 kmh 29.82 in1009.8 mb 0.00 in0.0 mm 0.00 in/hr0.0 mm/hr 0.12 in3.0 mm
02:12 PM 29.7°F-1.3°C 28.6°F-1.9°C 96% 10.1 mph ESE16.3 kmh ESE 12.1 mph19.5 kmh 29.82 in1009.8 mb 0.03 in0.8 mm 0.00 in/hr0.0 mm/hr 0.12 in3.0 mm
02:07 PM 29.7°F-1.3°C 28.6°F-1.9°C 96% 10.1 mph ENE16.3 kmh ENE 10.1 mph16.3 kmh 29.81 in1009.5 mb 0.06 in1.5 mm 0.00 in/hr0.0 mm/hr 0.12 in3.0 mm
02:02 PM 29.7°F-1.3°C 28.6°F-1.9°C 96% 10.1 mph ENE16.3 kmh ENE 14.1 mph22.7 kmh 29.81 in1009.5 mb 0.06 in1.5 mm 0.00 in/hr0.0 mm/hr 0.12 in3.0 mm
01:57 PM 29.7°F-1.3°C 28.6°F-1.9°C 96% 10.1 mph E16.3 kmh E 10.1 mph16.3 kmh 29.82 in1009.8 mb 0.06 in1.5 mm 0.00 in/hr0.0 mm/hr 0.11 in2.8 mm
01:52 PM 29.7°F-1.3°C 28.6°F-1.9°C 96% 10.1 mph E16.3 kmh E 8.9 mph14.3 kmh 29.82 in1009.8 mb 0.06 in1.5 mm 0.00 in/hr0.0 mm/hr 0.10 in2.5 mm
01:47 PM 29.7°F-1.3°C 28.6°F-1.9°C 96% 10.1 mph E16.3 kmh E 8.1 mph13.0 kmh 29.82 in1009.8 mb 0.06 in1.5 mm 0.00 in/hr0.0 mm/hr 0.10 in2.5 mm
01:42 PM 29.7°F-1.3°C 28.6°F-1.9°C 96% 10.1 mph ENE16.3 kmh ENE 8.9 mph14.3 kmh 29.82 in1009.8 mb 0.06 in1.5 mm 0.00 in/hr0.0 mm/hr 0.09 in2.3 mm
01:37 PM 29.7°F-1.3°C 28.6°F-1.9°C 96% 10.1 mph ENE16.3 kmh ENE 8.9 mph14.3 kmh 29.82 in1009.8 mb 0.06 in1.5 mm 0.24 in/hr6.1 mm/hr 0.09 in2.3 mm
01:32 PM 29.5°F-1.4°C 28.4°F-2.0°C 96% 10.1 mph E16.3 kmh E 6.9 mph11.1 kmh 29.83 in1010.2 mb 0.04 in1.0 mm 0.00 in/hr0.0 mm/hr 0.09 in2.3 mm
01:27 PM 29.5°F-1.4°C 28.4°F-2.0°C 96% 11.0 mph ENE17.7 kmh ENE 11.0 mph17.7 kmh 29.83 in1010.2 mb 0.04 in1.0 mm 0.00 in/hr0.0 mm/hr 0.08 in2.0 mm
01:22 PM 29.7°F-1.3°C 28.6°F-1.9°C 96% 11.0 mph ENE17.7 kmh ENE 15.0 mph24.1 kmh 29.83 in1010.2 mb 0.04 in1.0 mm 0.00 in/hr0.0 mm/hr 0.08 in2.0 mm
01:17 PM 29.7°F-1.3°C 28.6°F-1.9°C 96% 11.0 mph E17.7 kmh E 14.1 mph22.7 kmh 29.83 in1010.2 mb 0.04 in1.0 mm 0.00 in/hr0.0 mm/hr 0.08 in2.0 mm
01:12 PM 29.7°F-1.3°C 28.6°F-1.9°C 96% 11.0 mph E17.7 kmh E 10.1 mph16.3 kmh 29.83 in1010.2 mb 0.04 in1.0 mm 0.00 in/hr0.0 mm/hr 0.07 in1.8 mm
01:07 PM 29.7°F-1.3°C 28.6°F-1.9°C 96% 10.1 mph ENE16.3 kmh ENE 16.1 mph25.9 kmh 29.83 in1010.2 mb 0.05 in1.3 mm 0.00 in/hr0.0 mm/hr 0.07 in1.8 mm
01:02 PM 29.7°F-1.3°C 28.6°F-1.9°C 96% 10.1 mph E16.3 kmh E 10.1 mph16.3 kmh 29.84 in1010.5 mb 0.05 in1.3 mm 0.02 in/hr0.5 mm/hr 0.06 in1.5 mm
12:57 PM 29.7°F-1.3°C 28.6°F-1.9°C 96% 11.0 mph E17.7 kmh E 8.9 mph14.3 kmh 29.83 in1010.2 mb 0.03 in0.8 mm 0.00 in/hr0.0 mm/hr 0.06 in1.5 mm
12:52 PM 29.7°F-1.3°C 28.6°F-1.9°C 96% 11.0 mph ENE17.7 kmh ENE 6.9 mph11.1 kmh 29.83 in1010.2 mb 0.03 in0.8 mm 0.00 in/hr0.0 mm/hr 0.06 in1.5 mm
12:47 PM 29.7°F-1.3°C 28.6°F-1.9°C 96% 11.0 mph ENE17.7 kmh ENE 8.1 mph13.0 kmh 29.84 in1010.5 mb 0.04 in1.0 mm 0.00 in/hr0.0 mm/hr 0.06 in1.5 mm
12:42 PM 29.7°F-1.3°C 28.6°F-1.9°C 96% 12.1 mph NE19.5 kmh NE 12.1 mph19.5 kmh 29.84 in1010.5 mb 0.05 in1.3 mm 0.00 in/hr0.0 mm/hr 0.06 in1.5 mm
12:37 PM 29.7°F-1.3°C 28.6°F-1.9°C 96% 12.1 mph NE19.5 kmh NE 15.0 mph24.1 kmh 29.84 in1010.5 mb 0.05 in1.3 mm 0.60 in/hr15.2 mm/hr 0.05 in1.3 mm
12:32 PM 29.7°F-1.3°C 28.6°F-1.9°C 96% 10.1 mph E16.3 kmh E 11.0 mph17.7 kmh 29.84 in1010.5 mb 0.00 in0.0 mm 0.00 in/hr0.0 mm/hr 0.05 in1.3 mm
12:27 PM 29.7°F-1.3°C 28.6°F-1.9°C 96% 10.1 mph ESE16.3 kmh ESE 8.1 mph13.0 kmh 29.84 in1010.5 mb 0.00 in0.0 mm 0.00 in/hr0.0 mm/hr 0.05 in1.3 mm
12:22 PM 29.7°F-1.3°C 28.6°F-1.9°C 96% 12.1 mph E19.5 kmh E 8.1 mph13.0 kmh 29.85 in1010.8 mb 0.00 in0.0 mm 0.00 in/hr0.0 mm/hr 0.04 in1.0 mm
12:17 PM 29.7°F-1.3°C 28.6°F-1.9°C 96% 12.1 mph ESE19.5 kmh ESE 11.0 mph17.7 kmh 29.85 in1010.8 mb 0.00 in0.0 mm 0.00 in/hr0.0 mm/hr 0.04 in1.0 mm
12:12 PM 29.7°F-1.3°C 28.6°F-1.9°C 96% 10.1 mph NE16.3 kmh NE 19.9 mph32.0 kmh 29.85 in1010.8 mb 0.00 in0.0 mm 0.00 in/hr0.0 mm/hr 0.04 in1.0 mm
12:07 PM 29.7°F-1.3°C 28.6°F-1.9°C 96% 8.9 mph E14.3 kmh E 13.0 mph20.9 kmh 29.85 in1010.8 mb 0.00 in0.0 mm 0.00 in/hr0.0 mm/hr 0.03 in0.8 mm
12:02 PM 29.7°F-1.3°C 28.6°F-1.9°C 96% 11.0 mph ENE17.7 kmh ENE 4.0 mph6.4 kmh 29.86 in1011.2 mb 0.00 in0.0 mm 0.00 in/hr0.0 mm/hr 0.03 in0.8 mm
11:57 AM 29.7°F-1.3°C 28.6°F-1.9°C 96% 11.0 mph E17.7 kmh E 14.1 mph22.7 kmh 29.86 in1011.2 mb 0.00 in0.0 mm 0.00 in/hr0.0 mm/hr 0.03 in0.8 mm
11:52 AM 29.7°F-1.3°C 28.6°F-1.9°C 96% 10.1 mph E16.3 kmh E 13.0 mph20.9 kmh 29.86 in1011.2 mb 0.00 in0.0 mm 0.00 in/hr0.0 mm/hr 0.03 in0.8 mm
11:47 AM 29.7°F-1.3°C 28.6°F-1.9°C 96% 10.1 mph E16.3 kmh E 6.9 mph11.1 kmh 29.86 in1011.2 mb 0.00 in0.0 mm 0.00 in/hr0.0 mm/hr 0.03 in0.8 mm
11:42 AM 29.7°F-1.3°C 28.6°F-1.9°C 96% 8.9 mph NE14.3 kmh NE 10.1 mph16.3 kmh 29.87 in1011.5 mb 0.00 in0.0 mm 0.00 in/hr0.0 mm/hr 0.02 in0.5 mm
11:37 AM 29.8°F-1.2°C 28.8°F-1.8°C 96% 10.1 mph ENE16.3 kmh ENE 8.1 mph13.0 kmh 29.86 in1011.2 mb 0.00 in0.0 mm 0.00 in/hr0.0 mm/hr 0.02 in0.5 mm
11:32 AM 29.8°F-1.2°C 28.8°F-1.8°C 96% 10.1 mph E16.3 kmh E 8.9 mph14.3 kmh 29.87 in1011.5 mb 0.00 in0.0 mm 0.00 in/hr0.0 mm/hr 0.02 in0.5 mm
11:27 AM 29.8°F-1.2°C 28.8°F-1.8°C 96% 10.1 mph E16.3 kmh E 8.1 mph13.0 kmh 29.87 in1011.5 mb 0.00 in0.0 mm 0.00 in/hr0.0 mm/hr 0.02 in0.5 mm
11:22 AM 29.8°F-1.2°C 28.6°F-1.9°C 95% 10.1 mph E16.3 kmh E 10.1 mph16.3 kmh 29.87 in1011.5 mb 0.00 in0.0 mm 0.00 in/hr0.0 mm/hr 0.02 in0.5 mm
11:17 AM 29.8°F-1.2°C 28.6°F-1.9°C 95% 11.0 mph ENE17.7 kmh ENE 10.1 mph16.3 kmh 29.87 in1011.5 mb 0.00 in0.0 mm 0.00 in/hr0.0 mm/hr 0.02 in0.5 mm
11:12 AM 29.8°F-1.2°C 28.6°F-1.9°C 95% 12.1 mph ENE19.5 kmh ENE 10.1 mph16.3 kmh 29.87 in1011.5 mb 0.00 in0.0 mm 0.00 in/hr0.0 mm/hr 0.02 in0.5 mm
11:07 AM 29.8°F-1.2°C 28.6°F-1.9°C 95% 11.0 mph E17.7 kmh E 12.1 mph19.5 kmh 29.87 in1011.5 mb 0.00 in0.0 mm 0.00 in/hr0.0 mm/hr 0.02 in0.5 mm
11:02 AM 29.8°F-1.2°C 28.6°F-1.9°C 95% 8.9 mph E14.3 kmh E 10.1 mph16.3 kmh 29.88 in1011.9 mb 0.00 in0.0 mm 0.00 in/hr0.0 mm/hr 0.02 in0.5 mm
10:57 AM 29.8°F-1.2°C 28.6°F-1.9°C 95% 8.1 mph ENE13.0 kmh ENE 8.9 mph14.3 kmh 29.88 in1011.9 mb 0.00 in0.0 mm 0.00 in/hr0.0 mm/hr 0.02 in0.5 mm
10:52 AM 29.8°F-1.2°C 28.6°F-1.9°C 95% 8.9 mph NE14.3 kmh NE 11.0 mph17.7 kmh 29.88 in1011.9 mb 0.00 in0.0 mm 0.00 in/hr0.0 mm/hr 0.02 in0.5 mm
10:47 AM 29.8°F-1.2°C 28.6°F-1.9°C 95% 10.1 mph ESE16.3 kmh ESE 4.0 mph6.4 kmh 29.88 in1011.9 mb 0.00 in0.0 mm 0.00 in/hr0.0 mm/hr 0.02 in0.5 mm
10:42 AM 29.8°F-1.2°C 28.6°F-1.9°C 95% 10.1 mph E16.3 kmh E 8.1 mph13.0 kmh 29.88 in1011.9 mb 0.00 in0.0 mm 0.00 in/hr0.0 mm/hr 0.01 in0.3 mm
10:37 AM 29.8°F-1.2°C 28.6°F-1.9°C 95% 10.1 mph E16.3 kmh E 8.9 mph14.3 kmh 29.88 in1011.9 mb 0.00 in0.0 mm 0.00 in/hr0.0 mm/hr 0.01 in0.3 mm
10:32 AM 29.8°F-1.2°C 28.6°F-1.9°C 95% 8.9 mph E14.3 kmh E 11.0 mph17.7 kmh 29.89 in1012.2 mb 0.00 in0.0 mm 0.00 in/hr0.0 mm/hr 0.01 in0.3 mm
10:27 AM 29.8°F-1.2°C 28.6°F-1.9°C 95% 8.9 mph E14.3 kmh E 11.0 mph17.7 kmh 29.89 in1012.2 mb 0.00 in0.0 mm 0.00 in/hr0.0 mm/hr 0.01 in0.3 mm
10:22 AM 29.7°F-1.3°C 28.4°F-2.0°C 95% 10.1 mph ENE16.3 kmh ENE 8.9 mph14.3 kmh 29.89 in1012.2 mb 0.00 in0.0 mm 0.00 in/hr0.0 mm/hr 0.01 in0.3 mm
10:17 AM 29.7°F-1.3°C 28.4°F-2.0°C 95% 10.1 mph E16.3 kmh E 6.9 mph11.1 kmh 29.89 in1012.2 mb 0.00 in0.0 mm 0.00 in/hr0.0 mm/hr 0.01 in0.3 mm
10:12 AM 29.7°F-1.3°C 28.4°F-2.0°C 95% 10.1 mph E16.3 kmh E 8.9 mph14.3 kmh 29.89 in1012.2 mb 0.00 in0.0 mm 0.00 in/hr0.0 mm/hr 0.01 in0.3 mm
10:07 AM 29.7°F-1.3°C 28.4°F-2.0°C 95% 10.1 mph ESE16.3 kmh ESE 10.1 mph16.3 kmh 29.89 in1012.2 mb 0.00 in0.0 mm 0.00 in/hr0.0 mm/hr 0.01 in0.3 mm
10:02 AM 29.5°F-1.4°C 28.2°F-2.1°C 95% 11.0 mph NNE17.7 kmh NNE 6.9 mph11.1 kmh 29.89 in1012.2 mb 0.00 in0.0 mm 0.00 in/hr0.0 mm/hr 0.01 in0.3 mm
09:57 AM 29.5°F-1.4°C 28.2°F-2.1°C 95% 11.0 mph E17.7 kmh E 10.1 mph16.3 kmh 29.90 in1012.5 mb 0.00 in0.0 mm 0.00 in/hr0.0 mm/hr 0.01 in0.3 mm
09:52 AM 29.5°F-1.4°C 28.2°F-2.1°C 95% 10.1 mph E16.3 kmh E 11.0 mph17.7 kmh 29.90 in1012.5 mb 0.00 in0.0 mm 0.00 in/hr0.0 mm/hr 0.01 in0.3 mm
09:47 AM 29.5°F-1.4°C 28.2°F-2.1°C 95% 10.1 mph E16.3 kmh E 10.1 mph16.3 kmh 29.90 in1012.5 mb 0.00 in0.0 mm 0.00 in/hr0.0 mm/hr 0.01 in0.3 mm
09:42 AM 29.5°F-1.4°C 28.2°F-2.1°C 95% 10.1 mph E16.3 kmh E 8.9 mph14.3 kmh 29.90 in1012.5 mb 0.00 in0.0 mm 0.00 in/hr0.0 mm/hr 0.01 in0.3 mm
09:37 AM 29.5°F-1.4°C 28.2°F-2.1°C 95% 8.9 mph E14.3 kmh E 10.1 mph16.3 kmh 29.90 in1012.5 mb 0.00 in0.0 mm 0.00 in/hr0.0 mm/hr 0.01 in0.3 mm
09:32 AM 29.5°F-1.4°C 28.2°F-2.1°C 95% 8.9 mph ENE14.3 kmh ENE 6.9 mph11.1 kmh 29.91 in1012.9 mb 0.00 in0.0 mm 0.00 in/hr0.0 mm/hr 0.01 in0.3 mm
09:27 AM 29.5°F-1.4°C 28.2°F-2.1°C 95% 8.9 mph SE14.3 kmh SE 8.1 mph13.0 kmh 29.91 in1012.9 mb 0.00 in0.0 mm 0.00 in/hr0.0 mm/hr 0.01 in0.3 mm
09:22 AM 29.5°F-1.4°C 28.2°F-2.1°C 95% 10.1 mph ENE16.3 kmh ENE 6.9 mph11.1 kmh 29.91 in1012.9 mb 0.00 in0.0 mm 0.00 in/hr0.0 mm/hr 0.01 in0.3 mm
09:17 AM 29.5°F-1.4°C 28.2°F-2.1°C 95% 10.1 mph NE16.3 kmh NE 14.1 mph22.7 kmh 29.91 in1012.9 mb 0.00 in0.0 mm 0.00 in/hr0.0 mm/hr 0.01 in0.3 mm
09:12 AM 29.5°F-1.4°C 28.4°F-2.0°C 96% 10.1 mph E16.3 kmh E 10.1 mph16.3 kmh 29.91 in1012.9 mb 0.00 in0.0 mm 0.00 in/hr0.0 mm/hr 0.01 in0.3 mm
09:07 AM 29.5°F-1.4°C 28.4°F-2.0°C 96% 11.0 mph ENE17.7 kmh ENE 10.1 mph16.3 kmh 29.91 in1012.9 mb 0.00 in0.0 mm 0.00 in/hr0.0 mm/hr 0.01 in0.3 mm
09:02 AM 29.5°F-1.4°C 28.4°F-2.0°C 96% 10.1 mph NE16.3 kmh NE 15.0 mph24.1 kmh 29.91 in1012.9 mb 0.00 in0.0 mm 0.00 in/hr0.0 mm/hr 0.01 in0.3 mm
08:57 AM 29.5°F-1.4°C 28.4°F-2.0°C 96% 8.9 mph E14.3 kmh E 11.0 mph17.7 kmh 29.91 in1012.9 mb 0.00 in0.0 mm 0.00 in/hr0.0 mm/hr 0.01 in0.3 mm
08:52 AM 29.5°F-1.4°C 28.4°F-2.0°C 96% 8.9 mph E14.3 kmh E 8.9 mph14.3 kmh 29.91 in1012.9 mb 0.00 in0.0 mm 0.00 in/hr0.0 mm/hr 0.01 in0.3 mm
08:47 AM 29.5°F-1.4°C 28.4°F-2.0°C 96% 8.9 mph ESE14.3 kmh ESE 8.9 mph14.3 kmh 29.91 in1012.9 mb 0.00 in0.0 mm 0.00 in/hr0.0 mm/hr 0.01 in0.3 mm
08:42 AM 29.5°F-1.4°C 28.4°F-2.0°C 96% 8.9 mph E14.3 kmh E 10.1 mph16.3 kmh 29.91 in1012.9 mb 0.00 in0.0 mm 0.00 in/hr0.0 mm/hr 0.01 in0.3 mm
08:37 AM 29.3°F-1.5°C 28.2°F-2.1°C 96% 8.9 mph E14.3 kmh E 4.0 mph6.4 kmh 29.91 in1012.9 mb 0.00 in0.0 mm 0.00 in/hr0.0 mm/hr 0.01 in0.3 mm
08:32 AM 29.3°F-1.5°C 28.2°F-2.1°C 96% 8.9 mph ENE14.3 kmh ENE 8.1 mph13.0 kmh 29.91 in1012.9 mb 0.00 in0.0 mm 0.00 in/hr0.0 mm/hr 0.01 in0.3 mm
08:27 AM 29.3°F-1.5°C 28.2°F-2.1°C 96% 8.9 mph NE14.3 kmh NE 10.1 mph16.3 kmh 29.90 in1012.5 mb 0.00 in0.0 mm 0.00 in/hr0.0 mm/hr 0.01 in0.3 mm
08:22 AM 29.3°F-1.5°C 28.2°F-2.1°C 96% 8.9 mph ENE14.3 kmh ENE 11.0 mph17.7 kmh 29.90 in1012.5 mb 0.00 in0.0 mm 0.00 in/hr0.0 mm/hr 0.01 in0.3 mm
08:17 AM 29.3°F-1.5°C 28.2°F-2.1°C 96% 8.9 mph NE14.3 kmh NE 6.9 mph11.1 kmh 29.90 in1012.5 mb 0.00 in0.0 mm 0.00 in/hr0.0 mm/hr 0.01 in0.3 mm
08:12 AM 29.3°F-1.5°C 28.2°F-2.1°C 96% 10.1 mph NE16.3 kmh NE 6.9 mph11.1 kmh 29.90 in1012.5 mb 0.00 in0.0 mm 0.00 in/hr0.0 mm/hr 0.01 in0.3 mm
08:07 AM 29.1°F-1.6°C 28.0°F-2.2°C 96% 10.1 mph NE16.3 kmh NE 8.9 mph14.3 kmh 29.91 in1012.9 mb 0.00 in0.0 mm 0.00 in/hr0.0 mm/hr 0.01 in0.3 mm
08:02 AM 29.1°F-1.6°C 28.0°F-2.2°C 96% 8.9 mph E14.3 kmh E 6.9 mph11.1 kmh 29.91 in1012.9 mb 0.00 in0.0 mm 0.00 in/hr0.0 mm/hr 0.01 in0.3 mm
07:57 AM 29.1°F-1.6°C 28.0°F-2.2°C 96% 8.9 mph E14.3 kmh E 4.9 mph7.9 kmh 29.90 in1012.5 mb 0.00 in0.0 mm 0.00 in/hr0.0 mm/hr 0.01 in0.3 mm
07:52 AM 29.1°F-1.6°C 28.0°F-2.2°C 96% 8.1 mph E13.0 kmh E 4.9 mph7.9 kmh 29.90 in1012.5 mb 0.00 in0.0 mm 0.00 in/hr0.0 mm/hr 0.01 in0.3 mm
07:47 AM 29.1°F-1.6°C 28.0°F-2.2°C 96% 6.9 mph ENE11.1 kmh ENE 6.0 mph9.7 kmh 29.90 in1012.5 mb 0.00 in0.0 mm 0.00 in/hr0.0 mm/hr 0.01 in0.3 mm
07:42 AM 29.1°F-1.6°C 28.0°F-2.2°C 96% 8.1 mph E13.0 kmh E 8.9 mph14.3 kmh 29.90 in1012.5 mb 0.00 in0.0 mm 0.00 in/hr0.0 mm/hr 0.01 in0.3 mm
07:37 AM 29.1°F-1.6°C 28.0°F-2.2°C 96% 8.9 mph ENE14.3 kmh ENE 8.9 mph14.3 kmh 29.89 in1012.2 mb 0.00 in0.0 mm 0.00 in/hr0.0 mm/hr 0.01 in0.3 mm
07:32 AM 28.9°F-1.7°C 27.9°F-2.3°C 96% 10.1 mph ESE16.3 kmh ESE 6.9 mph11.1 kmh 29.89 in1012.2 mb 0.00 in0.0 mm 0.00 in/hr0.0 mm/hr 0.01 in0.3 mm
07:27 AM 28.9°F-1.7°C 27.9°F-2.3°C 96% 8.9 mph ENE14.3 kmh ENE 6.0 mph9.7 kmh 29.89 in1012.2 mb 0.00 in0.0 mm 0.00 in/hr0.0 mm/hr 0.01 in0.3 mm
07:22 AM 28.9°F-1.7°C 27.9°F-2.3°C 96% 8.1 mph E13.0 kmh E 15.0 mph24.1 kmh 29.90 in1012.5 mb 0.00 in0.0 mm 0.00 in/hr0.0 mm/hr 0.01 in0.3 mm
07:17 AM 28.9°F-1.7°C 27.9°F-2.3°C 96% 8.1 mph E13.0 kmh E 8.1 mph13.0 kmh 29.90 in1012.5 mb 0.00 in0.0 mm 0.00 in/hr0.0 mm/hr 0.01 in0.3 mm
07:12 AM 28.9°F-1.7°C 27.9°F-2.3°C 96% 8.1 mph E13.0 kmh E 8.1 mph13.0 kmh 29.90 in1012.5 mb 0.00 in0.0 mm 0.00 in/hr0.0 mm/hr 0.01 in0.3 mm
07:02 AM 28.9°F-1.7°C 27.9°F-2.3°C 96% 8.9 mph E14.3 kmh E 8.9 mph14.3 kmh 29.90 in1012.5 mb 0.00 in0.0 mm 0.00 in/hr0.0 mm/hr 0.01 in0.3 mm
06:57 AM 28.9°F-1.7°C 27.9°F-2.3°C 96% 10.1 mph E16.3 kmh E 8.1 mph13.0 kmh 29.90 in1012.5 mb 0.00 in0.0 mm 0.00 in/hr0.0 mm/hr 0.01 in0.3 mm
06:52 AM 28.9°F-1.7°C 27.9°F-2.3°C 96% 8.9 mph E14.3 kmh E 8.9 mph14.3 kmh 29.90 in1012.5 mb 0.00 in0.0 mm 0.00 in/hr0.0 mm/hr 0.01 in0.3 mm
06:47 AM 28.9°F-1.7°C 27.9°F-2.3°C 96% 8.9 mph E14.3 kmh E 4.9 mph7.9 kmh 29.90 in1012.5 mb 0.00 in0.0 mm 0.00 in/hr0.0 mm/hr 0.01 in0.3 mm
06:42 AM 28.9°F-1.7°C 27.9°F-2.3°C 96% 8.1 mph ENE13.0 kmh ENE 8.9 mph14.3 kmh 29.90 in1012.5 mb 0.00 in0.0 mm 0.00 in/hr0.0 mm/hr 0.01 in0.3 mm
06:37 AM 28.9°F-1.7°C 27.9°F-2.3°C 96% 6.9 mph ESE11.1 kmh ESE 2.9 mph4.7 kmh 29.90 in1012.5 mb 0.00 in0.0 mm 0.00 in/hr0.0 mm/hr 0.01 in0.3 mm
06:32 AM 28.9°F-1.7°C 27.9°F-2.3°C 96% 8.1 mph ENE13.0 kmh ENE 6.0 mph9.7 kmh 29.90 in1012.5 mb 0.00 in0.0 mm 0.00 in/hr0.0 mm/hr 0.01 in0.3 mm
06:27 AM 28.9°F-1.7°C 27.9°F-2.3°C 96% 8.1 mph ENE13.0 kmh ENE 8.1 mph13.0 kmh 29.90 in1012.5 mb 0.00 in0.0 mm 0.00 in/hr0.0 mm/hr 0.01 in0.3 mm
06:22 AM 28.9°F-1.7°C 27.9°F-2.3°C 96% 8.1 mph NE13.0 kmh NE 10.1 mph16.3 kmh 29.91 in1012.9 mb 0.00 in0.0 mm 0.00 in/hr0.0 mm/hr 0.01 in0.3 mm
06:17 AM 28.8°F-1.8°C 27.7°F-2.4°C 96% 8.1 mph E13.0 kmh E 4.9 mph7.9 kmh 29.91 in1012.9 mb 0.00 in0.0 mm 0.00 in/hr0.0 mm/hr 0.01 in0.3 mm
06:12 AM 28.8°F-1.8°C 27.7°F-2.4°C 96% 8.1 mph ESE13.0 kmh ESE 11.0 mph17.7 kmh 29.91 in1012.9 mb 0.00 in0.0 mm 0.00 in/hr0.0 mm/hr 0.01 in0.3 mm
06:07 AM 28.8°F-1.8°C 27.7°F-2.4°C 96% 8.1 mph E13.0 kmh E 10.1 mph16.3 kmh 29.91 in1012.9 mb 0.00 in0.0 mm 0.00 in/hr0.0 mm/hr 0.01 in0.3 mm
06:02 AM 28.8°F-1.8°C 27.7°F-2.4°C 96% 8.1 mph E13.0 kmh E 4.0 mph6.4 kmh 29.91 in1012.9 mb 0.00 in0.0 mm 0.00 in/hr0.0 mm/hr 0.01 in0.3 mm
05:57 AM 28.8°F-1.8°C 27.7°F-2.4°C 96% 8.1 mph ESE13.0 kmh ESE 6.0 mph9.7 kmh 29.91 in1012.9 mb 0.00 in0.0 mm 0.00 in/hr0.0 mm/hr 0.01 in0.3 mm
05:52 AM 28.8°F-1.8°C 27.7°F-2.4°C 96% 8.1 mph E13.0 kmh E 6.0 mph9.7 kmh 29.91 in1012.9 mb 0.00 in0.0 mm 0.00 in/hr0.0 mm/hr 0.01 in0.3 mm
05:47 AM 28.8°F-1.8°C 27.7°F-2.4°C 96% 8.1 mph ESE13.0 kmh ESE 8.1 mph13.0 kmh 29.92 in1013.2 mb 0.00 in0.0 mm 0.00 in/hr0.0 mm/hr 0.01 in0.3 mm
05:42 AM 28.8°F-1.8°C 27.7°F-2.4°C 96% 8.1 mph E13.0 kmh E 6.0 mph9.7 kmh 29.91 in1012.9 mb 0.00 in0.0 mm 0.00 in/hr0.0 mm/hr 0.01 in0.3 mm
05:37 AM 28.8°F-1.8°C 27.7°F-2.4°C 96% 8.1 mph NE13.0 kmh NE 6.0 mph9.7 kmh 29.91 in1012.9 mb 0.00 in0.0 mm 0.00 in/hr0.0 mm/hr 0.01 in0.3 mm
05:32 AM 28.8°F-1.8°C 27.7°F-2.4°C 96% 8.1 mph ENE13.0 kmh ENE 10.1 mph16.3 kmh 29.91 in1012.9 mb 0.00 in0.0 mm 0.00 in/hr0.0 mm/hr 0.01 in0.3 mm
05:27 AM 28.8°F-1.8°C 27.7°F-2.4°C 96% 8.1 mph E13.0 kmh E 4.9 mph7.9 kmh 29.91 in1012.9 mb 0.00 in0.0 mm 0.00 in/hr0.0 mm/hr 0.01 in0.3 mm
05:22 AM 28.8°F-1.8°C 27.7°F-2.4°C 96% 6.9 mph E11.1 kmh E 2.9 mph4.7 kmh 29.91 in1012.9 mb 0.00 in0.0 mm 0.00 in/hr0.0 mm/hr 0.01 in0.3 mm
05:17 AM 28.8°F-1.8°C 27.7°F-2.4°C 96% 8.1 mph E13.0 kmh E 8.9 mph14.3 kmh 29.91 in1012.9 mb 0.00 in0.0 mm 0.00 in/hr0.0 mm/hr 0.01 in0.3 mm
05:12 AM 28.8°F-1.8°C 27.7°F-2.4°C 96% 8.9 mph E14.3 kmh E 6.0 mph9.7 kmh 29.91 in1012.9 mb 0.00 in0.0 mm 0.00 in/hr0.0 mm/hr 0.01 in0.3 mm
05:07 AM 28.6°F-1.9°C 27.5°F-2.5°C 96% 8.9 mph E14.3 kmh E 4.9 mph7.9 kmh 29.91 in1012.9 mb 0.00 in0.0 mm 0.00 in/hr0.0 mm/hr 0.01 in0.3 mm
05:02 AM 28.6°F-1.9°C 27.5°F-2.5°C 96% 8.9 mph E14.3 kmh E 11.0 mph17.7 kmh 29.91 in1012.9 mb 0.00 in0.0 mm 0.00 in/hr0.0 mm/hr 0.01 in0.3 mm
04:57 AM 28.6°F-1.9°C 27.5°F-2.5°C 96% 8.9 mph E14.3 kmh E 6.9 mph11.1 kmh 29.91 in1012.9 mb 0.00 in0.0 mm 0.00 in/hr0.0 mm/hr 0.01 in0.3 mm
04:52 AM 28.6°F-1.9°C 27.5°F-2.5°C 96% 8.9 mph NE14.3 kmh NE 4.9 mph7.9 kmh 29.91 in1012.9 mb 0.00 in0.0 mm 0.00 in/hr0.0 mm/hr 0.01 in0.3 mm
04:47 AM 28.6°F-1.9°C 27.5°F-2.5°C 96% 8.1 mph E13.0 kmh E 12.1 mph19.5 kmh 29.91 in1012.9 mb 0.00 in0.0 mm 0.00 in/hr0.0 mm/hr 0.01 in0.3 mm
04:42 AM 28.6°F-1.9°C 27.5°F-2.5°C 96% 8.1 mph E13.0 kmh E 6.9 mph11.1 kmh 29.91 in1012.9 mb 0.00 in0.0 mm 0.00 in/hr0.0 mm/hr 0.01 in0.3 mm
04:37 AM 28.6°F-1.9°C 27.3°F-2.6°C 95% 8.1 mph E13.0 kmh E 6.9 mph11.1 kmh 29.91 in1012.9 mb 0.00 in0.0 mm 0.00 in/hr0.0 mm/hr 0.01 in0.3 mm
04:32 AM 28.6°F-1.9°C 27.3°F-2.6°C 95% 8.9 mph E14.3 kmh E 12.1 mph19.5 kmh 29.91 in1012.9 mb 0.00 in0.0 mm 0.00 in/hr0.0 mm/hr 0.01 in0.3 mm
04:27 AM 28.6°F-1.9°C 27.3°F-2.6°C 95% 10.1 mph E16.3 kmh E 11.0 mph17.7 kmh 29.92 in1013.2 mb 0.00 in0.0 mm 0.00 in/hr0.0 mm/hr 0.01 in0.3 mm
04:22 AM 28.6°F-1.9°C 27.5°F-2.5°C 96% 8.9 mph E14.3 kmh E 10.1 mph16.3 kmh 29.91 in1012.9 mb 0.00 in0.0 mm 0.00 in/hr0.0 mm/hr 0.01 in0.3 mm
04:17 AM 28.6°F-1.9°C 27.5°F-2.5°C 96% 8.9 mph E14.3 kmh E 11.0 mph17.7 kmh 29.92 in1013.2 mb 0.00 in0.0 mm 0.00 in/hr0.0 mm/hr 0.01 in0.3 mm
04:12 AM 28.4°F-2.0°C 27.3°F-2.6°C 96% 8.1 mph E13.0 kmh E 10.1 mph16.3 kmh 29.92 in1013.2 mb 0.00 in0.0 mm 0.00 in/hr0.0 mm/hr 0.01 in0.3 mm
04:07 AM 28.4°F-2.0°C 27.3°F-2.6°C 96% 8.1 mph ENE13.0 kmh ENE 11.0 mph17.7 kmh 29.92 in1013.2 mb 0.00 in0.0 mm 0.00 in/hr0.0 mm/hr 0.01 in0.3 mm
04:02 AM 28.2°F-2.1°C 27.0°F-2.8°C 95% 8.1 mph ENE13.0 kmh ENE 4.0 mph6.4 kmh 29.92 in1013.2 mb 0.00 in0.0 mm 0.00 in/hr0.0 mm/hr 0.01 in0.3 mm
03:57 AM 28.2°F-2.1°C 27.0°F-2.8°C 95% 8.1 mph E13.0 kmh E 11.0 mph17.7 kmh 29.92 in1013.2 mb 0.00 in0.0 mm 0.00 in/hr0.0 mm/hr 0.01 in0.3 mm
03:52 AM 28.2°F-2.1°C 27.0°F-2.8°C 95% 8.1 mph E13.0 kmh E 11.0 mph17.7 kmh 29.92 in1013.2 mb 0.00 in0.0 mm 0.00 in/hr0.0 mm/hr 0.01 in0.3 mm
03:47 AM 28.2°F-2.1°C 27.0°F-2.8°C 95% 8.9 mph NE14.3 kmh NE 4.9 mph7.9 kmh 29.93 in1013.5 mb 0.00 in0.0 mm 0.00 in/hr0.0 mm/hr 0.01 in0.3 mm
03:42 AM 28.2°F-2.1°C 27.0°F-2.8°C 95% 8.1 mph ESE13.0 kmh ESE 8.9 mph14.3 kmh 29.93 in1013.5 mb 0.00 in0.0 mm 0.00 in/hr0.0 mm/hr 0.01 in0.3 mm
03:37 AM 28.2°F-2.1°C 27.0°F-2.8°C 95% 8.9 mph ENE14.3 kmh ENE 4.0 mph6.4 kmh 29.93 in1013.5 mb 0.00 in0.0 mm 0.00 in/hr0.0 mm/hr 0.01 in0.3 mm
03:32 AM 28.2°F-2.1°C 27.0°F-2.8°C 95% 8.1 mph E13.0 kmh E 11.0 mph17.7 kmh 29.93 in1013.5 mb 0.00 in0.0 mm 0.00 in/hr0.0 mm/hr 0.01 in0.3 mm
03:27 AM 28.2°F-2.1°C 27.0°F-2.8°C 95% 6.9 mph E11.1 kmh E 10.1 mph16.3 kmh 29.93 in1013.5 mb 0.00 in0.0 mm 0.00 in/hr0.0 mm/hr 0.01 in0.3 mm
03:22 AM 28.2°F-2.1°C 27.0°F-2.8°C 95% 6.0 mph E9.7 kmh E 6.9 mph11.1 kmh 29.93 in1013.5 mb 0.00 in0.0 mm 0.00 in/hr0.0 mm/hr 0.01 in0.3 mm
03:17 AM 28.2°F-2.1°C 27.0°F-2.8°C 95% 6.9 mph NE11.1 kmh NE 4.0 mph6.4 kmh 29.94 in1013.9 mb 0.00 in0.0 mm 0.00 in/hr0.0 mm/hr 0.01 in0.3 mm
03:12 AM 28.2°F-2.1°C 27.0°F-2.8°C 95% 8.1 mph E13.0 kmh E 8.1 mph13.0 kmh 29.94 in1013.9 mb 0.00 in0.0 mm 0.00 in/hr0.0 mm/hr 0.01 in0.3 mm
03:07 AM 28.2°F-2.1°C 27.0°F-2.8°C 95% 8.1 mph E13.0 kmh E 6.9 mph11.1 kmh 29.94 in1013.9 mb 0.00 in0.0 mm 0.00 in/hr0.0 mm/hr 0.01 in0.3 mm
03:02 AM 28.2°F-2.1°C 27.0°F-2.8°C 95% 8.1 mph NE13.0 kmh NE 10.1 mph16.3 kmh 29.94 in1013.9 mb 0.00 in0.0 mm 0.00 in/hr0.0 mm/hr 0.01 in0.3 mm
02:57 AM 28.2°F-2.1°C 27.0°F-2.8°C 95% 6.9 mph E11.1 kmh E 8.9 mph14.3 kmh 29.94 in1013.9 mb 0.00 in0.0 mm 0.00 in/hr0.0 mm/hr 0.01 in0.3 mm
02:52 AM 28.2°F-2.1°C 27.0°F-2.8°C 95% 6.9 mph E11.1 kmh E 4.9 mph7.9 kmh 29.94 in1013.9 mb 0.00 in0.0 mm 0.00 in/hr0.0 mm/hr 0.01 in0.3 mm
02:47 AM 28.2°F-2.1°C 27.0°F-2.8°C 95% 6.9 mph ENE11.1 kmh ENE 4.0 mph6.4 kmh 29.94 in1013.9 mb 0.00 in0.0 mm 0.00 in/hr0.0 mm/hr 0.01 in0.3 mm
02:42 AM 28.2°F-2.1°C 27.0°F-2.8°C 95% 8.1 mph ENE13.0 kmh ENE 4.9 mph7.9 kmh 29.94 in1013.9 mb 0.00 in0.0 mm 0.00 in/hr0.0 mm/hr 0.01 in0.3 mm
02:37 AM 28.2°F-2.1°C 27.0°F-2.8°C 95% 8.1 mph E13.0 kmh E 6.0 mph9.7 kmh 29.94 in1013.9 mb 0.00 in0.0 mm 0.00 in/hr0.0 mm/hr 0.01 in0.3 mm
02:32 AM 28.2°F-2.1°C 27.0°F-2.8°C 95% 6.9 mph E11.1 kmh E 4.9 mph7.9 kmh 29.95 in1014.2 mb 0.00 in0.0 mm 0.00 in/hr0.0 mm/hr 0.01 in0.3 mm
02:27 AM 28.4°F-2.0°C 27.1°F-2.7°C 95% 6.9 mph E11.1 kmh E 8.1 mph13.0 kmh 29.95 in1014.2 mb 0.00 in0.0 mm 0.00 in/hr0.0 mm/hr 0.01 in0.3 mm
02:22 AM 28.4°F-2.0°C 27.1°F-2.7°C 95% 6.9 mph E11.1 kmh E 6.9 mph11.1 kmh 29.95 in1014.2 mb 0.00 in0.0 mm 0.00 in/hr0.0 mm/hr 0.01 in0.3 mm
02:17 AM 28.2°F-2.1°C 27.0°F-2.8°C 95% 6.9 mph E11.1 kmh E 6.0 mph9.7 kmh 29.95 in1014.2 mb 0.00 in0.0 mm 0.00 in/hr0.0 mm/hr 0.01 in0.3 mm
02:12 AM 28.4°F-2.0°C 27.1°F-2.7°C 95% 6.9 mph E11.1 kmh E 8.1 mph13.0 kmh 29.95 in1014.2 mb 0.00 in0.0 mm 0.00 in/hr0.0 mm/hr 0.01 in0.3 mm
02:07 AM 28.4°F-2.0°C 27.1°F-2.7°C 95% 6.0 mph NE9.7 kmh NE 6.9 mph11.1 kmh 29.95 in1014.2 mb 0.00 in0.0 mm 0.00 in/hr0.0 mm/hr 0.01 in0.3 mm
02:02 AM 28.2°F-2.1°C 27.0°F-2.8°C 95% 8.1 mph E13.0 kmh E 8.1 mph13.0 kmh 29.96 in1014.6 mb 0.00 in0.0 mm 0.00 in/hr0.0 mm/hr 0.01 in0.3 mm
01:57 AM 28.2°F-2.1°C 27.0°F-2.8°C 95% 8.1 mph ENE13.0 kmh ENE 4.0 mph6.4 kmh 29.96 in1014.6 mb 0.00 in0.0 mm 0.00 in/hr0.0 mm/hr 0.01 in0.3 mm
01:52 AM 28.2°F-2.1°C 27.0°F-2.8°C 95% 6.0 mph NE9.7 kmh NE 12.1 mph19.5 kmh 29.96 in1014.6 mb 0.00 in0.0 mm 0.00 in/hr0.0 mm/hr 0.01 in0.3 mm
01:47 AM 28.2°F-2.1°C 27.0°F-2.8°C 95% 4.9 mph E7.9 kmh E 4.0 mph6.4 kmh 29.96 in1014.6 mb 0.00 in0.0 mm 0.00 in/hr0.0 mm/hr 0.01 in0.3 mm
01:42 AM 28.2°F-2.1°C 27.0°F-2.8°C 95% 6.0 mph NE9.7 kmh NE 4.9 mph7.9 kmh 29.96 in1014.6 mb 0.00 in0.0 mm 0.00 in/hr0.0 mm/hr 0.01 in0.3 mm
01:37 AM 28.2°F-2.1°C 27.0°F-2.8°C 95% 6.9 mph ENE11.1 kmh ENE 4.0 mph6.4 kmh 29.96 in1014.6 mb 0.00 in0.0 mm 0.00 in/hr0.0 mm/hr 0.01 in0.3 mm
01:32 AM 28.2°F-2.1°C 27.0°F-2.8°C 95% 6.0 mph ESE9.7 kmh ESE 6.0 mph9.7 kmh 29.96 in1014.6 mb 0.00 in0.0 mm 0.00 in/hr0.0 mm/hr 0.01 in0.3 mm
01:27 AM 28.2°F-2.1°C 27.0°F-2.8°C 95% 6.0 mph ESE9.7 kmh ESE 2.9 mph4.7 kmh 29.96 in1014.6 mb 0.00 in0.0 mm 0.00 in/hr0.0 mm/hr 0.01 in0.3 mm
01:22 AM 28.2°F-2.1°C 27.0°F-2.8°C 95% 6.9 mph E11.1 kmh E 4.9 mph7.9 kmh 29.96 in1014.6 mb 0.00 in0.0 mm 0.00 in/hr0.0 mm/hr 0.01 in0.3 mm
01:17 AM 28.2°F-2.1°C 27.0°F-2.8°C 95% 6.0 mph E9.7 kmh E 6.9 mph11.1 kmh 29.96 in1014.6 mb 0.00 in0.0 mm 0.00 in/hr0.0 mm/hr 0.01 in0.3 mm
01:12 AM 28.2°F-2.1°C 27.0°F-2.8°C 95% 4.0 mph ESE6.4 kmh ESE 6.9 mph11.1 kmh 29.97 in1014.9 mb 0.00 in0.0 mm 0.00 in/hr0.0 mm/hr 0.01 in0.3 mm
01:07 AM 28.2°F-2.1°C 27.0°F-2.8°C 95% 4.0 mph E6.4 kmh E 4.9 mph7.9 kmh 29.97 in1014.9 mb 0.00 in0.0 mm 0.00 in/hr0.0 mm/hr 0.01 in0.3 mm
01:02 AM 28.0°F-2.2°C 26.8°F-2.9°C 95% 4.0 mph ENE6.4 kmh ENE 4.0 mph6.4 kmh 29.97 in1014.9 mb 0.00 in0.0 mm 0.00 in/hr0.0 mm/hr 0.01 in0.3 mm
12:57 AM 28.0°F-2.2°C 26.8°F-2.9°C 95% 4.9 mph ENE7.9 kmh ENE 4.0 mph6.4 kmh 29.97 in1014.9 mb 0.00 in0.0 mm 0.00 in/hr0.0 mm/hr 0.01 in0.3 mm
12:52 AM 28.0°F-2.2°C 26.8°F-2.9°C 95% 6.0 mph NE9.7 kmh NE 4.0 mph6.4 kmh 29.97 in1014.9 mb 0.00 in0.0 mm 0.00 in/hr0.0 mm/hr 0.01 in0.3 mm
12:47 AM 28.0°F-2.2°C 26.8°F-2.9°C 95% 6.0 mph E9.7 kmh E 4.9 mph7.9 kmh 29.97 in1014.9 mb 0.00 in0.0 mm 0.00 in/hr0.0 mm/hr 0.01 in0.3 mm
12:42 AM 28.0°F-2.2°C 26.8°F-2.9°C 95% 6.0 mph ENE9.7 kmh ENE 8.1 mph13.0 kmh 29.98 in1015.2 mb 0.00 in0.0 mm 0.00 in/hr0.0 mm/hr 0.01 in0.3 mm
12:37 AM 28.0°F-2.2°C 26.8°F-2.9°C 95% 6.0 mph E9.7 kmh E 6.9 mph11.1 kmh 29.98 in1015.2 mb 0.00 in0.0 mm 0.00 in/hr0.0 mm/hr 0.01 in0.3 mm
12:32 AM 28.0°F-2.2°C 26.8°F-2.9°C 95% 6.0 mph E9.7 kmh E 4.9 mph7.9 kmh 29.98 in1015.2 mb 0.00 in0.0 mm 0.00 in/hr0.0 mm/hr 0.01 in0.3 mm
12:27 AM 28.0°F-2.2°C 26.8°F-2.9°C 95% 6.0 mph E9.7 kmh E 2.0 mph3.2 kmh 29.98 in1015.2 mb 0.00 in0.0 mm 0.00 in/hr0.0 mm/hr 0.01 in0.3 mm
12:22 AM 28.0°F-2.2°C 26.8°F-2.9°C 95% 6.9 mph E11.1 kmh E 4.0 mph6.4 kmh 29.98 in1015.2 mb 0.00 in0.0 mm 0.00 in/hr0.0 mm/hr 0.01 in0.3 mm
12:17 AM 28.0°F-2.2°C 26.8°F-2.9°C 95% 6.9 mph E11.1 kmh E 2.9 mph4.7 kmh 29.98 in1015.2 mb 0.00 in0.0 mm 0.00 in/hr0.0 mm/hr 0.01 in0.3 mm
12:12 AM 28.0°F-2.2°C 26.8°F-2.9°C 95% 6.0 mph E9.7 kmh E 8.1 mph13.0 kmh 29.98 in1015.2 mb 0.00 in0.0 mm 0.00 in/hr0.0 mm/hr 0.00 in0.0 mm
12:07 AM 27.9°F-2.3°C 26.6°F-3.0°C 95% 4.9 mph ESE7.9 kmh ESE 4.0 mph6.4 kmh 29.98 in1015.2 mb 0.00 in0.0 mm 0.00 in/hr0.0 mm/hr 0.00 in0.0 mm
12:02 AM 27.9°F-2.3°C 26.6°F-3.0°C 95% 6.0 mph E9.7 kmh E 4.9 mph7.9 kmh 29.99 in1015.6 mb 0.00 in0.0 mm 0.00 in/hr0.0 mm/hr 0.00 in0.0 mm